createdAt,value
2023-04-20T00:00:22.038Z,7.15
2023-04-20T00:02:48.742Z,6.57
2023-04-20T00:05:15.374Z,5.57
2023-04-20T00:07:41.888Z,5.90
2023-04-20T00:10:09.093Z,5.20
2023-04-20T00:12:35.864Z,4.75
2023-04-20T00:15:02.515Z,6.00
2023-04-20T00:17:28.926Z,5.78
2023-04-20T00:19:55.345Z,5.00
2023-04-20T00:22:21.714Z,4.80
2023-04-20T00:24:48.120Z,4.80
2023-04-20T00:27:14.516Z,4.70
2023-04-20T00:29:41.029Z,4.65
2023-04-20T00:32:07.428Z,5.25
2023-04-20T00:34:33.829Z,6.22
2023-04-20T00:37:00.912Z,5.13
2023-04-20T00:39:27.436Z,5.15
2023-04-20T00:41:54.242Z,5.03
2023-04-20T00:44:20.691Z,5.03
2023-04-20T00:46:47.149Z,5.00
2023-04-20T00:49:13.629Z,4.65
2023-04-20T00:51:40.145Z,4.90
2023-04-20T00:54:07.012Z,5.07
2023-04-20T00:56:34.053Z,5.10
2023-04-20T00:59:01.806Z,5.03
2023-04-20T01:01:29.025Z,4.55
2023-04-20T01:03:55.754Z,4.72
2023-04-20T01:06:22.429Z,5.55
2023-04-20T01:08:51.809Z,5.15
2023-04-20T01:11:18.492Z,5.60
2023-04-20T01:13:45.348Z,5.22
2023-04-20T01:16:12.178Z,6.35
2023-04-20T01:18:47.187Z,5.63
2023-04-20T01:21:14.885Z,5.40
2023-04-20T01:23:41.353Z,5.05
2023-04-20T01:26:09.316Z,5.88
2023-04-20T01:28:35.946Z,5.63
2023-04-20T01:31:04.141Z,5.95
2023-04-20T01:33:31.939Z,5.85
2023-04-20T01:35:58.365Z,5.68
2023-04-20T01:38:25.803Z,5.80
2023-04-20T01:40:52.908Z,5.82
2023-04-20T01:43:22.418Z,5.50
2023-04-20T01:45:48.938Z,4.88
2023-04-20T01:48:15.619Z,6.25
2023-04-20T01:50:42.216Z,5.57
2023-04-20T01:53:08.687Z,5.68
2023-04-20T01:55:35.210Z,6.50
2023-04-20T01:58:01.637Z,6.75
2023-04-20T02:00:28.103Z,6.38
2023-04-20T02:03:53.923Z,5.88
2023-04-20T02:06:21.070Z,6.35
2023-04-20T02:08:47.831Z,5.80
2023-04-20T02:11:14.364Z,5.97
2023-04-20T02:13:40.904Z,6.07
2023-04-20T02:16:07.540Z,5.38
2023-04-20T02:18:34.041Z,6.43
2023-04-20T02:21:01.354Z,5.40
2023-04-20T02:23:27.921Z,6.07
2023-04-20T02:25:55.538Z,6.40
2023-04-20T02:28:22.007Z,5.78
2023-04-20T02:30:48.516Z,6.43
2023-04-20T02:33:14.982Z,6.60
2023-04-20T02:35:41.378Z,5.60
2023-04-20T02:38:10.670Z,5.82
2023-04-20T02:40:38.661Z,6.25
2023-04-20T02:43:05.863Z,8.10
2023-04-20T02:45:34.184Z,8.52
2023-04-20T02:48:00.862Z,11.73
2023-04-20T02:50:30.697Z,16.90
2023-04-20T02:53:23.276Z,10.70
2023-04-20T02:55:57.908Z,8.90
2023-04-20T02:58:36.051Z,8.77
2023-04-20T03:01:25.742Z,7.57
2023-04-20T03:04:00.589Z,8.52
2023-04-20T03:06:27.819Z,7.95
2023-04-20T03:08:56.556Z,7.47
2023-04-20T03:11:52.871Z,7.55
2023-04-20T03:14:34.699Z,7.47
2023-04-20T03:17:02.573Z,7.65
2023-04-20T03:19:29.008Z,7.65
2023-04-20T03:21:55.660Z,8.20
2023-04-20T03:24:22.772Z,7.97
2023-04-20T03:26:49.492Z,6.75
2023-04-20T03:29:19.274Z,7.53
2023-04-20T03:31:46.461Z,7.88
2023-04-20T03:34:12.946Z,7.97
2023-04-20T03:36:40.045Z,7.90
2023-04-20T03:39:06.861Z,8.02
2023-04-20T03:41:33.327Z,7.80
2023-04-20T03:43:59.921Z,7.82
2023-04-20T03:46:26.767Z,10.05
2023-04-20T03:48:53.294Z,11.10
2023-04-20T03:51:19.738Z,11.73
2023-04-20T03:53:46.219Z,12.57
2023-04-20T03:56:13.644Z,12.05
2023-04-20T03:58:40.217Z,11.77
2023-04-20T04:01:13.340Z,10.50
2023-04-20T04:03:44.669Z,8.80
2023-04-20T04:06:12.447Z,9.60
2023-04-20T04:08:38.891Z,9.52
2023-04-20T04:11:05.363Z,11.00
2023-04-20T04:13:34.438Z,12.48
2023-04-20T04:16:02.108Z,11.15
2023-04-20T04:18:32.313Z,11.45
2023-04-20T04:21:05.156Z,11.85
2023-04-20T04:23:34.556Z,11.82
2023-04-20T04:28:45.903Z,11.10
2023-04-20T04:31:21.528Z,11.93
2023-04-20T04:33:48.224Z,11.07
2023-04-20T04:36:28.685Z,9.93
2023-04-20T04:38:57.588Z,10.55
2023-04-20T04:41:25.493Z,9.93
2023-04-20T04:43:54.384Z,10.75
2023-04-20T04:46:27.712Z,10.73
2023-04-20T04:48:56.848Z,11.40
2023-04-20T04:51:24.122Z,10.07
2023-04-20T04:53:50.727Z,10.18
2023-04-20T04:56:18.440Z,11.48
2023-04-20T04:58:45.575Z,11.32
2023-04-20T05:01:12.212Z,11.48
2023-04-20T05:03:38.806Z,11.77
2023-04-20T05:06:05.616Z,11.93
2023-04-20T05:08:32.084Z,12.00
2023-04-20T05:10:58.550Z,11.50
2023-04-20T05:13:25.030Z,11.15
2023-04-20T05:15:51.502Z,11.35
2023-04-20T05:18:18.092Z,10.70
2023-04-20T05:20:44.531Z,10.95
2023-04-20T05:23:11.365Z,11.15
2023-04-20T05:25:37.934Z,10.45
2023-04-20T05:28:04.561Z,11.40
2023-04-20T05:30:31.371Z,11.82
2023-04-20T05:32:57.815Z,12.02
2023-04-20T05:35:24.320Z,11.52
2023-04-20T05:37:50.761Z,10.93
2023-04-20T05:40:17.395Z,10.73
2023-04-20T05:42:44.832Z,11.95
2023-04-20T05:45:11.480Z,13.35
2023-04-20T05:47:37.980Z,14.07
2023-04-20T05:50:04.956Z,10.77
2023-04-20T05:52:31.424Z,12.60
2023-04-20T05:54:59.359Z,12.07
2023-04-20T05:57:26.003Z,12.10
2023-04-20T05:59:52.599Z,13.05
2023-04-20T06:02:19.266Z,13.40
2023-04-20T06:04:46.221Z,11.95
2023-04-20T06:07:12.794Z,11.75
2023-04-20T06:09:39.234Z,12.55
2023-04-20T06:12:05.835Z,13.10
2023-04-20T06:14:32.279Z,13.15
2023-04-20T06:16:58.713Z,12.85
2023-04-20T06:19:25.140Z,13.40
2023-04-20T06:21:51.642Z,12.57
2023-04-20T06:24:18.112Z,12.85
2023-04-20T06:26:44.524Z,12.60
2023-04-20T06:29:10.967Z,12.73
2023-04-20T06:31:37.467Z,12.60
2023-04-20T06:34:04.019Z,12.23
2023-04-20T06:36:31.188Z,12.93
2023-04-20T06:38:57.647Z,11.40
2023-04-20T06:41:24.074Z,12.48
2023-04-20T06:43:50.572Z,11.52
2023-04-20T06:46:17.168Z,12.13
2023-04-20T06:48:43.635Z,12.95
2023-04-20T06:51:12.907Z,11.85
2023-04-20T06:53:39.351Z,12.07
2023-04-20T06:56:06.556Z,12.93
2023-04-20T06:58:32.955Z,13.15
2023-04-20T07:00:59.460Z,13.15
2023-04-20T07:03:25.993Z,13.30
2023-04-20T07:05:52.554Z,13.68
2023-04-20T07:08:18.997Z,12.30
2023-04-20T07:10:45.538Z,14.43
2023-04-20T07:13:11.980Z,15.68
2023-04-20T07:15:38.435Z,14.05
2023-04-20T07:18:05.146Z,12.88
2023-04-20T07:20:31.686Z,13.68
2023-04-20T07:22:58.111Z,12.75
2023-04-20T07:25:25.534Z,12.38
2023-04-20T07:27:51.988Z,14.05
2023-04-20T07:30:18.404Z,15.27
2023-04-20T07:32:45.039Z,14.32
2023-04-20T07:35:11.602Z,13.65
2023-04-20T07:37:38.072Z,13.15
2023-04-20T07:40:06.710Z,12.52
2023-04-20T07:42:34.813Z,13.70
2023-04-20T07:45:01.561Z,15.68
2023-04-20T07:47:28.080Z,14.57
2023-04-20T07:49:54.871Z,13.13
2023-04-20T07:52:21.472Z,14.50
2023-04-20T07:54:48.038Z,15.50
2023-04-20T07:57:15.125Z,14.10
2023-04-20T07:59:41.696Z,15.68
2023-04-20T08:02:08.681Z,14.35
2023-04-20T08:04:38.865Z,16.00
2023-04-20T08:07:05.681Z,15.77
2023-04-20T08:09:32.326Z,16.17
2023-04-20T08:11:58.796Z,16.65
2023-04-20T08:14:25.237Z,16.45
2023-04-20T08:16:51.722Z,17.13
2023-04-20T08:19:18.383Z,17.73
2023-04-20T08:21:45.023Z,16.67
2023-04-20T08:24:12.165Z,16.30
2023-04-20T08:26:39.607Z,15.60
2023-04-20T08:29:06.804Z,14.43
2023-04-20T08:31:33.284Z,15.43
2023-04-20T08:33:59.905Z,15.85
2023-04-20T08:36:26.720Z,14.57
2023-04-20T08:38:57.034Z,14.93
2023-04-20T08:41:25.307Z,15.00
2023-04-20T08:43:51.999Z,14.38
2023-04-20T08:46:19.342Z,14.77
2023-04-20T08:48:48.539Z,15.15
2023-04-20T08:51:17.010Z,15.68
2023-04-20T08:53:44.059Z,16.25
2023-04-20T08:56:10.899Z,14.65
2023-04-20T08:58:42.112Z,14.35
2023-04-20T09:01:10.677Z,15.45
2023-04-20T09:03:39.248Z,14.25
2023-04-20T09:06:07.053Z,13.50
2023-04-20T09:08:38.899Z,15.20
2023-04-20T09:11:05.560Z,14.98
2023-04-20T09:13:32.522Z,13.65
2023-04-20T09:16:10.172Z,15.40
2023-04-20T09:18:37.969Z,14.45
2023-04-20T09:21:08.938Z,16.15
2023-04-20T09:23:35.354Z,15.57
2023-04-20T09:26:01.817Z,14.90
2023-04-20T09:28:41.709Z,14.10
2023-04-20T09:31:18.939Z,16.25
2023-04-20T09:33:45.597Z,14.20
2023-04-20T09:36:12.131Z,14.25
2023-04-20T09:38:38.604Z,15.05
2023-04-20T09:41:06.901Z,15.95
2023-04-20T09:43:35.312Z,16.08
2023-04-20T09:46:03.362Z,15.63
2023-04-20T09:48:32.046Z,15.27
2023-04-20T09:51:01.853Z,16.23
2023-04-20T09:53:30.174Z,16.00
2023-04-20T09:55:58.403Z,18.30
2023-04-20T09:58:24.838Z,18.27
2023-04-20T10:00:51.597Z,16.58
2023-04-20T10:03:19.360Z,16.20
2023-04-20T10:05:46.235Z,16.88
2023-04-20T10:08:12.682Z,15.80
2023-04-20T10:10:49.868Z,15.43
2023-04-20T10:13:19.417Z,16.85
2023-04-20T10:15:46.260Z,16.23
2023-04-20T10:18:21.098Z,14.77
2023-04-20T10:20:47.680Z,14.73
2023-04-20T10:23:15.970Z,14.40
2023-04-20T10:25:44.969Z,14.88
2023-04-20T10:28:11.954Z,15.40
2023-04-20T10:30:51.002Z,14.80
2023-04-20T10:33:18.052Z,16.23
2023-04-20T10:35:56.114Z,16.38
2023-04-20T10:38:33.419Z,16.73
2023-04-20T10:41:10.563Z,17.10
2023-04-20T10:43:43.715Z,15.93
2023-04-20T10:46:24.481Z,16.60
2023-04-20T10:48:51.702Z,16.05
2023-04-20T10:51:18.930Z,18.02
2023-04-20T10:53:45.480Z,16.58
2023-04-20T10:56:11.996Z,16.40
2023-04-20T10:58:38.568Z,17.92
2023-04-20T11:01:05.309Z,17.65
2023-04-20T11:03:34.310Z,19.63
2023-04-20T11:06:02.553Z,17.65
2023-04-20T11:08:43.139Z,17.70
2023-04-20T11:11:19.809Z,16.42
2023-04-20T11:13:47.117Z,18.10
2023-04-20T11:16:16.418Z,16.67
2023-04-20T11:18:56.406Z,18.48
2023-04-20T11:21:22.868Z,18.60
2023-04-20T11:23:50.360Z,19.02
2023-04-20T11:26:17.093Z,20.50
2023-04-20T11:28:55.919Z,20.42
2023-04-20T11:31:23.317Z,19.42
2023-04-20T11:33:50.163Z,19.30
2023-04-20T11:36:24.018Z,19.95
2023-04-20T11:38:51.036Z,18.23
2023-04-20T11:41:17.836Z,17.08
2023-04-20T11:43:45.574Z,15.00
2023-04-20T11:46:16.803Z,14.35
2023-04-20T11:51:09.976Z,11.63
2023-04-20T11:53:37.428Z,12.35
2023-04-20T11:56:04.576Z,11.80
2023-04-20T11:58:31.098Z,12.07
2023-04-20T12:00:57.613Z,12.45
2023-04-20T12:03:24.158Z,12.52
2023-04-20T12:05:51.208Z,11.95
2023-04-20T12:08:17.756Z,11.35
2023-04-20T12:10:44.677Z,10.48
2023-04-20T12:13:11.157Z,10.95
2023-04-20T12:15:37.694Z,10.93
2023-04-20T12:18:04.314Z,10.30
2023-04-20T12:20:30.784Z,9.80
2023-04-20T12:22:58.555Z,10.57
2023-04-20T12:25:25.546Z,9.75
2023-04-20T12:27:52.077Z,9.80
2023-04-20T12:30:18.548Z,9.45
2023-04-20T12:32:45.038Z,9.27
2023-04-20T12:35:11.617Z,9.55
2023-04-20T12:37:38.065Z,8.77
2023-04-20T12:40:06.411Z,8.30
2023-04-20T12:42:33.013Z,8.48
2023-04-20T12:44:59.487Z,9.07
2023-04-20T12:47:26.175Z,9.35
2023-04-20T12:49:52.572Z,9.35
2023-04-20T12:52:19.183Z,9.20
2023-04-20T12:54:46.228Z,8.55
2023-04-20T12:57:13.032Z,9.07
2023-04-20T12:59:39.417Z,9.73
2023-04-20T13:02:06.302Z,9.27
2023-04-20T13:04:32.895Z,9.90
2023-04-20T13:06:59.330Z,11.00
2023-04-20T13:09:27.138Z,12.35
2023-04-20T13:11:53.906Z,12.95
2023-04-20T13:14:20.920Z,13.60
2023-04-20T13:16:47.794Z,13.88
2023-04-20T13:19:14.489Z,14.15
2023-04-20T13:21:40.951Z,12.90
2023-04-20T13:24:07.589Z,14.48
2023-04-20T13:26:34.238Z,14.63
2023-04-20T13:29:00.772Z,15.65
2023-04-20T13:31:27.279Z,14.52
2023-04-20T13:33:54.843Z,14.30
2023-04-20T13:36:23.068Z,15.55
2023-04-20T13:38:54.398Z,14.52
2023-04-20T13:43:47.419Z,16.30
2023-04-20T13:46:15.300Z,17.33
2023-04-20T13:48:41.962Z,14.82
2023-04-20T13:51:08.574Z,12.60
2023-04-20T13:53:35.100Z,13.27
2023-04-20T13:56:01.648Z,13.05
2023-04-20T13:58:28.727Z,13.23
2023-04-20T14:00:55.313Z,12.95
2023-04-20T14:03:21.974Z,13.05
2023-04-20T14:05:50.324Z,12.05
2023-04-20T14:08:18.131Z,12.82
2023-04-20T14:10:44.543Z,13.63
2023-04-20T14:13:11.195Z,12.20
2023-04-20T14:15:37.824Z,13.38
2023-04-20T14:18:04.409Z,14.10
2023-04-20T14:20:30.873Z,13.80
2023-04-20T14:22:57.336Z,13.13
2023-04-20T14:25:23.800Z,13.82
2023-04-20T14:27:50.296Z,14.10
2023-04-20T14:30:16.717Z,14.13
2023-04-20T14:32:53.998Z,14.20
2023-04-20T14:35:20.720Z,15.93
2023-04-20T14:37:47.122Z,16.50
2023-04-20T14:40:13.661Z,15.23
2023-04-20T14:42:40.655Z,15.57
2023-04-20T14:45:08.162Z,16.63
2023-04-20T14:47:34.777Z,16.10
2023-04-20T14:50:01.221Z,17.17
2023-04-20T14:52:27.822Z,18.17
2023-04-20T14:54:54.274Z,17.30
2023-04-20T14:57:20.729Z,18.42
2023-04-20T14:59:47.150Z,19.25
2023-04-20T15:02:14.192Z,19.10
2023-04-20T15:04:40.897Z,19.33
2023-04-20T15:07:07.480Z,18.95
2023-04-20T15:09:33.961Z,19.33
2023-04-20T15:12:01.851Z,20.05
2023-04-20T15:14:28.341Z,19.52
2023-04-20T15:16:55.024Z,19.05
2023-04-20T15:19:22.784Z,19.17
2023-04-20T15:21:49.247Z,19.42
2023-04-20T15:24:15.961Z,20.80
2023-04-20T15:26:42.493Z,18.33
2023-04-20T15:29:08.922Z,18.60
2023-04-20T15:31:35.487Z,20.10
2023-04-20T15:34:01.930Z,20.20
2023-04-20T15:36:28.588Z,18.80
2023-04-20T15:38:57.439Z,19.98
2023-04-20T15:41:24.272Z,17.75
2023-04-20T15:43:51.276Z,19.02
2023-04-20T15:46:17.782Z,20.45
2023-04-20T15:48:44.901Z,21.83
2023-04-20T15:51:11.531Z,21.50
2023-04-20T15:53:38.066Z,21.60
2023-04-20T15:56:04.761Z,25.45
2023-04-20T15:58:31.210Z,25.77
2023-04-20T16:00:57.840Z,24.95
2023-04-20T16:03:24.517Z,32.90
2023-04-20T16:05:51.207Z,29.42
2023-04-20T16:08:18.936Z,26.48
2023-04-20T16:10:45.380Z,23.67
2023-04-20T16:13:11.951Z,22.08
2023-04-20T16:15:39.036Z,22.25
2023-04-20T16:18:05.704Z,23.75
2023-04-20T16:20:32.288Z,21.08
2023-04-20T16:22:58.801Z,21.73
2023-04-20T16:25:25.841Z,21.00
2023-04-20T16:27:52.472Z,21.38
2023-04-20T16:30:19.077Z,20.85
2023-04-20T16:32:45.871Z,19.05
2023-04-20T16:35:12.547Z,18.45
2023-04-20T16:37:39.037Z,19.38
2023-04-20T16:40:06.198Z,19.45
2023-04-20T16:42:32.697Z,20.27
2023-04-20T16:45:00.382Z,19.92
2023-04-20T16:47:26.995Z,17.77
2023-04-20T16:49:53.665Z,18.95
2023-04-20T16:52:20.090Z,18.02
2023-04-20T16:54:46.505Z,18.13
2023-04-20T16:57:12.918Z,18.27
2023-04-20T16:59:39.346Z,19.80
2023-04-20T17:02:06.058Z,18.40
2023-04-20T17:04:32.785Z,18.38
2023-04-20T17:06:59.313Z,16.90
2023-04-20T17:09:25.939Z,16.98
2023-04-20T17:11:52.728Z,16.95
2023-04-20T17:14:19.284Z,17.05
2023-04-20T17:16:45.983Z,16.95
2023-04-20T17:19:12.499Z,17.75
2023-04-20T17:21:40.460Z,16.95
2023-04-20T17:24:06.932Z,17.10
2023-04-20T17:26:33.377Z,15.98
2023-04-20T17:29:00.297Z,17.83
2023-04-20T17:31:26.780Z,16.60
2023-04-20T17:33:53.203Z,17.25
2023-04-20T17:36:19.594Z,16.88
2023-04-20T17:38:46.380Z,19.02
2023-04-20T17:41:12.855Z,20.17
2023-04-20T17:43:40.538Z,19.73
2023-04-20T17:46:07.815Z,20.00
2023-04-20T17:48:34.495Z,18.80
2023-04-20T17:51:00.956Z,20.23
2023-04-20T17:53:27.598Z,19.63
2023-04-20T17:55:54.023Z,20.40
2023-04-20T17:58:20.538Z,21.10
2023-04-20T18:00:47.680Z,22.02
2023-04-20T18:03:14.839Z,21.02
2023-04-20T18:05:41.966Z,21.25
2023-04-20T18:08:10.048Z,22.10
2023-04-20T18:10:37.501Z,25.05
2023-04-20T18:13:04.148Z,24.77
2023-04-20T18:15:30.620Z,25.35
2023-04-20T18:17:57.152Z,23.45
2023-04-20T18:20:23.905Z,24.35
2023-04-20T18:22:50.594Z,23.10
2023-04-20T18:25:18.850Z,23.33
2023-04-20T18:27:45.895Z,21.40
2023-04-20T18:30:13.715Z,22.80
2023-04-20T18:32:40.550Z,24.55
2023-04-20T18:35:07.884Z,20.15
2023-04-20T18:37:34.287Z,20.58
2023-04-20T18:40:00.763Z,19.92
2023-04-20T18:42:27.274Z,28.17
2023-04-20T18:44:53.737Z,25.15
2023-04-20T18:47:22.038Z,35.55
2023-04-20T18:49:48.486Z,35.53
2023-04-20T18:52:14.930Z,30.70
2023-04-20T18:54:41.677Z,26.02
2023-04-20T18:57:08.427Z,21.00
2023-04-20T18:59:34.959Z,22.30
2023-04-20T19:02:01.538Z,20.92
2023-04-20T19:04:29.218Z,21.92
2023-04-20T19:06:55.757Z,23.42
2023-04-20T19:09:22.188Z,21.00
2023-04-20T19:11:49.856Z,18.80
2023-04-20T19:14:16.455Z,16.75
2023-04-20T19:16:43.218Z,18.10
2023-04-20T19:19:10.166Z,19.88
2023-04-20T19:21:36.591Z,18.90
2023-04-20T19:24:03.174Z,18.95
2023-04-20T19:26:29.618Z,18.88
2023-04-20T19:28:57.661Z,17.08
2023-04-20T19:31:24.122Z,16.67
2023-04-20T19:33:50.585Z,15.55
2023-04-20T19:36:19.105Z,16.95
2023-04-20T19:38:45.797Z,16.45
2023-04-20T19:41:12.300Z,16.38
2023-04-20T19:43:38.850Z,16.88
2023-04-20T19:46:09.460Z,18.20
2023-04-20T19:48:36.741Z,15.45
2023-04-20T19:51:03.876Z,15.07
2023-04-20T19:53:30.445Z,15.00
2023-04-20T19:55:57.189Z,16.55
2023-04-20T19:58:23.732Z,16.52
2023-04-20T20:00:50.411Z,18.05
2023-04-20T20:03:16.966Z,16.17
2023-04-20T20:05:44.045Z,14.85
2023-04-20T20:08:11.636Z,12.85
2023-04-20T20:10:38.098Z,10.43
2023-04-20T20:13:04.728Z,11.32
2023-04-20T20:15:32.175Z,12.93
2023-04-20T20:17:59.404Z,13.50
2023-04-20T20:20:32.258Z,13.40
2023-04-20T20:22:59.821Z,12.85
2023-04-20T20:25:26.458Z,12.57
2023-04-20T20:27:53.073Z,15.38
2023-04-20T20:30:19.646Z,16.92
2023-04-20T20:32:46.638Z,17.45
2023-04-20T20:35:13.302Z,19.77
2023-04-20T20:37:40.733Z,19.40
2023-04-20T20:40:10.335Z,20.63
2023-04-20T20:42:38.744Z,21.73
2023-04-20T20:45:07.161Z,23.05
2023-04-20T20:47:33.925Z,21.60
2023-04-20T20:50:00.350Z,23.45
2023-04-20T20:52:26.798Z,23.25
2023-04-20T20:54:53.267Z,21.52
2023-04-20T20:57:20.590Z,22.23
2023-04-20T20:59:47.013Z,22.48
2023-04-20T21:02:13.556Z,21.35
2023-04-20T21:04:40.144Z,22.75
2023-04-20T21:07:06.696Z,25.15
2023-04-20T21:09:33.118Z,28.50
2023-04-20T21:12:00.754Z,27.40
2023-04-20T21:14:27.321Z,31.08
2023-04-20T21:16:53.919Z,29.98
2023-04-20T21:19:20.705Z,29.33
2023-04-20T21:21:47.511Z,24.83
2023-04-20T21:24:13.989Z,23.33
2023-04-20T21:26:40.418Z,21.13
2023-04-20T21:29:07.125Z,23.42
2023-04-20T21:31:33.631Z,23.10
2023-04-20T21:34:00.461Z,24.63
2023-04-20T21:36:27.839Z,22.58
2023-04-20T21:38:54.303Z,23.40
2023-04-20T21:41:21.657Z,22.13
2023-04-20T21:43:48.067Z,22.38
2023-04-20T21:46:17.538Z,22.48
2023-04-20T21:48:43.999Z,22.55
2023-04-20T21:51:17.609Z,22.73
2023-04-20T21:53:44.489Z,22.15
2023-04-20T21:56:11.369Z,23.08
2023-04-20T21:58:37.751Z,24.85
2023-04-20T22:01:04.298Z,24.33
2023-04-20T22:03:31.343Z,24.65
2023-04-20T22:05:58.789Z,23.95
2023-04-20T22:08:25.688Z,28.52
2023-04-20T22:10:52.444Z,25.00
2023-04-20T22:13:18.909Z,24.65
2023-04-20T22:15:47.305Z,24.77
2023-04-20T22:18:14.334Z,21.95
2023-04-20T22:20:40.788Z,23.90
2023-04-20T22:23:07.210Z,24.17
2023-04-20T22:25:33.652Z,24.42
2023-04-20T22:28:00.147Z,23.52
2023-04-20T22:30:26.700Z,23.20
2023-04-20T22:32:53.147Z,30.90
2023-04-20T22:35:19.864Z,29.17
2023-04-20T22:37:46.310Z,34.35
2023-04-20T22:40:14.107Z,32.88
2023-04-20T22:42:40.630Z,27.17
2023-04-20T22:45:09.417Z,29.35
2023-04-20T22:47:36.043Z,28.85
2023-04-20T22:50:03.359Z,30.70
2023-04-20T22:52:29.852Z,34.67
2023-04-20T22:54:56.380Z,33.92
2023-04-20T22:57:22.885Z,25.08
2023-04-20T22:59:49.375Z,31.52
2023-04-20T23:02:16.439Z,34.05
2023-04-20T23:04:45.934Z,54.35
2023-04-20T23:07:12.316Z,42.50
2023-04-20T23:09:41.218Z,37.78
2023-04-20T23:12:11.548Z,25.77
2023-04-20T23:14:39.067Z,35.58
2023-04-20T23:17:06.537Z,31.27
2023-04-20T23:19:33.376Z,33.60
2023-04-20T23:22:00.758Z,31.70
2023-04-20T23:24:27.251Z,27.95
2023-04-20T23:26:53.757Z,29.52
2023-04-20T23:29:20.312Z,24.80
2023-04-20T23:31:46.922Z,35.97
2023-04-20T23:34:13.457Z,30.08
2023-04-20T23:36:39.927Z,31.02
2023-04-20T23:39:06.671Z,29.40
2023-04-20T23:41:33.192Z,24.70
2023-04-20T23:43:59.683Z,28.27
2023-04-20T23:46:26.753Z,26.40
2023-04-20T23:48:55.292Z,27.80
2023-04-20T23:51:22.045Z,31.38
2023-04-20T23:53:48.443Z,32.13
2023-04-20T23:56:14.889Z,29.08
2023-04-20T23:58:41.349Z,28.33
